sensor_id;sensor_type;location;lat;lon;timestamp;P1;durP1;ratioP1;P2;durP2;ratioP2
28070;SDS011;15383;48.408;9.968;2024-01-16T00:00:51;4.28;;;1.90;;
28070;SDS011;15383;48.408;9.968;2024-01-16T00:03:17;3.88;;;2.05;;
28070;SDS011;15383;48.408;9.968;2024-01-16T00:05:42;5.65;;;1.83;;
28070;SDS011;15383;48.408;9.968;2024-01-16T00:08:08;4.30;;;2.03;;
28070;SDS011;15383;48.408;9.968;2024-01-16T00:10:33;5.60;;;2.10;;
28070;SDS011;15383;48.408;9.968;2024-01-16T00:12:59;5.20;;;2.15;;
28070;SDS011;15383;48.408;9.968;2024-01-16T00:15:24;3.05;;;1.80;;
28070;SDS011;15383;48.408;9.968;2024-01-16T00:17:50;3.58;;;1.75;;
28070;SDS011;15383;48.408;9.968;2024-01-16T00:20:16;4.05;;;1.90;;
28070;SDS011;15383;48.408;9.968;2024-01-16T00:22:42;8.07;;;1.90;;
28070;SDS011;15383;48.408;9.968;2024-01-16T00:25:07;3.60;;;1.90;;
28070;SDS011;15383;48.408;9.968;2024-01-16T00:27:33;7.13;;;1.60;;
28070;SDS011;15383;48.408;9.968;2024-01-16T00:29:59;4.82;;;1.98;;
28070;SDS011;15383;48.408;9.968;2024-01-16T00:32:24;10.23;;;2.92;;
28070;SDS011;15383;48.408;9.968;2024-01-16T00:34:50;4.32;;;2.15;;
28070;SDS011;15383;48.408;9.968;2024-01-16T00:37:16;3.78;;;2.25;;
28070;SDS011;15383;48.408;9.968;2024-01-16T00:39:41;4.65;;;2.20;;
28070;SDS011;15383;48.408;9.968;2024-01-16T00:42:07;6.55;;;2.67;;
28070;SDS011;15383;48.408;9.968;2024-01-16T00:44:33;4.93;;;2.22;;
28070;SDS011;15383;48.408;9.968;2024-01-16T00:46:59;3.88;;;2.20;;
28070;SDS011;15383;48.408;9.968;2024-01-16T00:49:26;4.40;;;2.08;;
28070;SDS011;15383;48.408;9.968;2024-01-16T00:51:52;5.25;;;2.45;;
28070;SDS011;15383;48.408;9.968;2024-01-16T00:54:18;7.20;;;2.38;;
28070;SDS011;15383;48.408;9.968;2024-01-16T00:56:44;4.53;;;2.67;;
28070;SDS011;15383;48.408;9.968;2024-01-16T00:59:09;7.03;;;2.67;;
28070;SDS011;15383;48.408;9.968;2024-01-16T01:01:37;5.03;;;1.92;;
28070;SDS011;15383;48.408;9.968;2024-01-16T01:04:03;5.40;;;2.25;;
28070;SDS011;15383;48.408;9.968;2024-01-16T01:06:28;4.88;;;2.28;;
28070;SDS011;15383;48.408;9.968;2024-01-16T01:08:54;5.15;;;3.05;;
28070;SDS011;15383;48.408;9.968;2024-01-16T01:11:19;6.20;;;2.47;;
28070;SDS011;15383;48.408;9.968;2024-01-16T01:13:45;6.60;;;2.85;;
28070;SDS011;15383;48.408;9.968;2024-01-16T01:16:11;5.35;;;2.55;;
28070;SDS011;15383;48.408;9.968;2024-01-16T01:18:36;5.90;;;2.65;;
28070;SDS011;15383;48.408;9.968;2024-01-16T01:21:02;5.07;;;1.90;;
28070;SDS011;15383;48.408;9.968;2024-01-16T01:23:28;5.82;;;2.40;;
28070;SDS011;15383;48.408;9.968;2024-01-16T01:25:53;3.72;;;2.10;;
28070;SDS011;15383;48.408;9.968;2024-01-16T01:28:19;4.65;;;2.10;;
28070;SDS011;15383;48.408;9.968;2024-01-16T01:30:44;7.38;;;2.15;;
28070;SDS011;15383;48.408;9.968;2024-01-16T01:33:10;4.57;;;2.13;;
28070;SDS011;15383;48.408;9.968;2024-01-16T01:35:36;5.38;;;2.38;;
28070;SDS011;15383;48.408;9.968;2024-01-16T01:38:02;4.75;;;2.42;;
28070;SDS011;15383;48.408;9.968;2024-01-16T01:40:28;7.65;;;2.92;;
28070;SDS011;15383;48.408;9.968;2024-01-16T01:42:53;4.90;;;2.40;;
28070;SDS011;15383;48.408;9.968;2024-01-16T01:45:19;5.18;;;2.30;;
28070;SDS011;15383;48.408;9.968;2024-01-16T01:47:44;6.07;;;2.47;;
28070;SDS011;15383;48.408;9.968;2024-01-16T01:50:11;4.85;;;2.08;;
28070;SDS011;15383;48.408;9.968;2024-01-16T01:52:38;4.22;;;2.45;;
28070;SDS011;15383;48.408;9.968;2024-01-16T01:55:05;9.82;;;3.67;;
28070;SDS011;15383;48.408;9.968;2024-01-16T01:57:36;7.95;;;2.53;;
28070;SDS011;15383;48.408;9.968;2024-01-16T02:00:02;7.10;;;2.15;;
28070;SDS011;15383;48.408;9.968;2024-01-16T02:02:29;3.72;;;1.90;;
28070;SDS011;15383;48.408;9.968;2024-01-16T02:04:56;5.22;;;2.15;;
28070;SDS011;15383;48.408;9.968;2024-01-16T02:07:21;4.18;;;2.03;;
28070;SDS011;15383;48.408;9.968;2024-01-16T02:09:47;4.85;;;2.00;;
28070;SDS011;15383;48.408;9.968;2024-01-16T02:12:13;4.00;;;1.85;;
28070;SDS011;15383;48.408;9.968;2024-01-16T02:14:39;7.55;;;2.08;;
28070;SDS011;15383;48.408;9.968;2024-01-16T02:17:04;5.93;;;2.25;;
28070;SDS011;15383;48.408;9.968;2024-01-16T02:19:31;6.18;;;2.38;;
28070;SDS011;15383;48.408;9.968;2024-01-16T02:21:59;6.22;;;2.10;;
28070;SDS011;15383;48.408;9.968;2024-01-16T02:24:25;4.80;;;1.95;;
28070;SDS011;15383;48.408;9.968;2024-01-16T02:26:51;7.82;;;2.08;;
28070;SDS011;15383;48.408;9.968;2024-01-16T02:29:18;3.38;;;1.80;;
28070;SDS011;15383;48.408;9.968;2024-01-16T02:31:43;4.03;;;2.28;;
28070;SDS011;15383;48.408;9.968;2024-01-16T02:34:09;9.02;;;1.90;;
28070;SDS011;15383;48.408;9.968;2024-01-16T02:36:34;4.72;;;2.00;;
28070;SDS011;15383;48.408;9.968;2024-01-16T02:39:00;2.00;;;1.42;;
28070;SDS011;15383;48.408;9.968;2024-01-16T02:41:25;3.33;;;1.70;;
28070;SDS011;15383;48.408;9.968;2024-01-16T02:43:51;4.65;;;2.13;;
28070;SDS011;15383;48.408;9.968;2024-01-16T02:46:16;3.42;;;2.08;;
28070;SDS011;15383;48.408;9.968;2024-01-16T02:48:42;6.85;;;2.15;;
28070;SDS011;15383;48.408;9.968;2024-01-16T02:51:08;3.60;;;1.85;;
28070;SDS011;15383;48.408;9.968;2024-01-16T02:53:34;3.08;;;1.85;;
28070;SDS011;15383;48.408;9.968;2024-01-16T02:55:59;3.65;;;1.90;;
28070;SDS011;15383;48.408;9.968;2024-01-16T02:58:26;6.18;;;2.03;;
28070;SDS011;15383;48.408;9.968;2024-01-16T03:00:52;4.10;;;2.03;;
28070;SDS011;15383;48.408;9.968;2024-01-16T03:03:17;5.03;;;1.88;;
28070;SDS011;15383;48.408;9.968;2024-01-16T03:05:43;5.07;;;1.70;;
28070;SDS011;15383;48.408;9.968;2024-01-16T03:08:09;5.30;;;1.50;;
28070;SDS011;15383;48.408;9.968;2024-01-16T03:10:35;2.75;;;1.92;;
28070;SDS011;15383;48.408;9.968;2024-01-16T03:13:01;2.05;;;1.83;;
28070;SDS011;15383;48.408;9.968;2024-01-16T03:15:26;4.15;;;2.20;;
28070;SDS011;15383;48.408;9.968;2024-01-16T03:17:52;3.95;;;1.80;;
28070;SDS011;15383;48.408;9.968;2024-01-16T03:20:18;3.15;;;1.70;;
28070;SDS011;15383;48.408;9.968;2024-01-16T03:22:43;4.93;;;2.63;;
28070;SDS011;15383;48.408;9.968;2024-01-16T03:25:09;7.20;;;2.10;;
28070;SDS011;15383;48.408;9.968;2024-01-16T03:27:38;3.47;;;1.77;;
28070;SDS011;15383;48.408;9.968;2024-01-16T03:30:04;6.70;;;1.98;;
28070;SDS011;15383;48.408;9.968;2024-01-16T03:32:31;5.15;;;2.85;;
28070;SDS011;15383;48.408;9.968;2024-01-16T03:34:57;9.60;;;1.90;;
28070;SDS011;15383;48.408;9.968;2024-01-16T03:37:22;5.00;;;2.08;;
28070;SDS011;15383;48.408;9.968;2024-01-16T03:39:48;2.50;;;1.77;;
28070;SDS011;15383;48.408;9.968;2024-01-16T03:42:15;5.60;;;1.75;;
28070;SDS011;15383;48.408;9.968;2024-01-16T03:44:41;5.45;;;1.92;;
28070;SDS011;15383;48.408;9.968;2024-01-16T03:47:07;2.30;;;1.77;;
28070;SDS011;15383;48.408;9.968;2024-01-16T03:49:33;3.20;;;1.63;;
28070;SDS011;15383;48.408;9.968;2024-01-16T03:51:58;4.72;;;2.13;;
28070;SDS011;15383;48.408;9.968;2024-01-16T03:54:24;3.95;;;1.67;;
28070;SDS011;15383;48.408;9.968;2024-01-16T03:56:50;2.17;;;1.92;;
28070;SDS011;15383;48.408;9.968;2024-01-16T03:59:16;4.13;;;2.08;;
28070;SDS011;15383;48.408;9.968;2024-01-16T04:01:42;5.97;;;2.10;;
28070;SDS011;15383;48.408;9.968;2024-01-16T04:04:09;3.88;;;2.13;;
28070;SDS011;15383;48.408;9.968;2024-01-16T04:06:35;8.50;;;2.38;;
28070;SDS011;15383;48.408;9.968;2024-01-16T04:09:01;5.13;;;2.10;;
28070;SDS011;15383;48.408;9.968;2024-01-16T04:11:28;4.65;;;2.13;;
28070;SDS011;15383;48.408;9.968;2024-01-16T04:13:54;5.03;;;2.40;;
28070;SDS011;15383;48.408;9.968;2024-01-16T04:16:19;5.25;;;2.00;;
28070;SDS011;15383;48.408;9.968;2024-01-16T04:18:45;4.47;;;1.85;;
28070;SDS011;15383;48.408;9.968;2024-01-16T04:21:10;6.90;;;2.20;;
28070;SDS011;15383;48.408;9.968;2024-01-16T04:23:36;2.78;;;1.88;;
28070;SDS011;15383;48.408;9.968;2024-01-16T04:26:02;3.25;;;2.03;;
28070;SDS011;15383;48.408;9.968;2024-01-16T04:28:28;5.40;;;1.98;;
28070;SDS011;15383;48.408;9.968;2024-01-16T04:30:53;4.15;;;2.10;;
28070;SDS011;15383;48.408;9.968;2024-01-16T04:33:19;5.28;;;2.03;;
28070;SDS011;15383;48.408;9.968;2024-01-16T04:35:45;3.85;;;1.67;;
28070;SDS011;15383;48.408;9.968;2024-01-16T04:38:10;3.75;;;1.83;;
28070;SDS011;15383;48.408;9.968;2024-01-16T04:40:36;4.05;;;2.20;;
28070;SDS011;15383;48.408;9.968;2024-01-16T04:43:02;11.85;;;2.58;;
28070;SDS011;15383;48.408;9.968;2024-01-16T04:45:28;4.53;;;2.20;;
28070;SDS011;15383;48.408;9.968;2024-01-16T04:47:53;3.95;;;1.95;;
28070;SDS011;15383;48.408;9.968;2024-01-16T04:50:19;2.55;;;1.73;;
28070;SDS011;15383;48.408;9.968;2024-01-16T04:52:44;5.57;;;2.20;;
28070;SDS011;15383;48.408;9.968;2024-01-16T04:55:10;3.72;;;2.40;;
28070;SDS011;15383;48.408;9.968;2024-01-16T05:10:56;4.50;;;2.22;;
28070;SDS011;15383;48.408;9.968;2024-01-16T05:16:43;6.10;;;2.55;;
28070;SDS011;15383;48.408;9.968;2024-01-16T05:19:09;6.70;;;2.55;;
28070;SDS011;15383;48.408;9.968;2024-01-16T05:21:35;3.70;;;1.80;;
28070;SDS011;15383;48.408;9.968;2024-01-16T05:24:00;4.53;;;2.03;;
28070;SDS011;15383;48.408;9.968;2024-01-16T05:39:40;2.72;;;1.73;;
28070;SDS011;15383;48.408;9.968;2024-01-16T05:45:28;3.92;;;2.00;;
28070;SDS011;15383;48.408;9.968;2024-01-16T05:47:54;5.10;;;2.20;;
28070;SDS011;15383;48.408;9.968;2024-01-16T05:50:20;6.55;;;2.10;;
28070;SDS011;15383;48.408;9.968;2024-01-16T05:52:45;4.50;;;2.25;;
28070;SDS011;15383;48.408;9.968;2024-01-16T05:55:11;8.95;;;2.90;;
28070;SDS011;15383;48.408;9.968;2024-01-16T06:16:21;3.50;;;2.05;;
28070;SDS011;15383;48.408;9.968;2024-01-16T06:18:47;6.97;;;2.72;;
28070;SDS011;15383;48.408;9.968;2024-01-16T06:21:12;4.95;;;2.45;;
28070;SDS011;15383;48.408;9.968;2024-01-16T06:23:38;4.10;;;2.38;;
28070;SDS011;15383;48.408;9.968;2024-01-16T06:26:03;4.13;;;2.28;;
28070;SDS011;15383;48.408;9.968;2024-01-16T06:28:29;5.60;;;2.63;;
28070;SDS011;15383;48.408;9.968;2024-01-16T06:47:31;8.48;;;3.17;;
28070;SDS011;15383;48.408;9.968;2024-01-16T06:49:57;10.88;;;3.05;;
28070;SDS011;15383;48.408;9.968;2024-01-16T06:52:23;11.57;;;3.22;;
28070;SDS011;15383;48.408;9.968;2024-01-16T06:54:49;6.57;;;3.28;;
28070;SDS011;15383;48.408;9.968;2024-01-16T06:57:15;6.88;;;2.83;;
28070;SDS011;15383;48.408;9.968;2024-01-16T06:59:41;4.95;;;2.42;;
28070;SDS011;15383;48.408;9.968;2024-01-16T07:02:06;9.05;;;2.60;;
28070;SDS011;15383;48.408;9.968;2024-01-16T07:14:39;8.05;;;2.13;;
28070;SDS011;15383;48.408;9.968;2024-01-16T07:17:05;5.55;;;2.10;;
28070;SDS011;15383;48.408;9.968;2024-01-16T07:22:54;5.78;;;2.35;;
28070;SDS011;15383;48.408;9.968;2024-01-16T07:25:20;3.90;;;1.88;;
28070;SDS011;15383;48.408;9.968;2024-01-16T07:27:45;8.25;;;2.53;;
28070;SDS011;15383;48.408;9.968;2024-01-16T07:30:14;8.68;;;2.40;;
28070;SDS011;15383;48.408;9.968;2024-01-16T07:32:40;5.60;;;2.33;;
28070;SDS011;15383;48.408;9.968;2024-01-16T07:35:06;4.65;;;3.13;;
28070;SDS011;15383;48.408;9.968;2024-01-16T09:18:34;7.00;;;3.00;;
28070;SDS011;15383;48.408;9.968;2024-01-16T09:24:21;12.95;;;3.78;;
28070;SDS011;15383;48.408;9.968;2024-01-16T09:26:47;11.75;;;3.88;;
28070;SDS011;15383;48.408;9.968;2024-01-16T09:29:13;5.95;;;3.60;;
28070;SDS011;15383;48.408;9.968;2024-01-16T09:31:39;8.65;;;3.63;;
28070;SDS011;15383;48.408;9.968;2024-01-16T09:34:05;8.00;;;3.75;;
28070;SDS011;15383;48.408;9.968;2024-01-16T09:36:31;8.77;;;3.40;;
28070;SDS011;15383;48.408;9.968;2024-01-16T09:38:57;11.57;;;4.47;;
28070;SDS011;15383;48.408;9.968;2024-01-16T09:41:23;10.85;;;4.63;;
28070;SDS011;15383;48.408;9.968;2024-01-16T09:43:48;5.82;;;3.28;;
28070;SDS011;15383;48.408;9.968;2024-01-16T09:46:16;8.15;;;4.20;;
28070;SDS011;15383;48.408;9.968;2024-01-16T09:48:44;9.15;;;4.30;;
28070;SDS011;15383;48.408;9.968;2024-01-16T09:51:11;12.23;;;3.88;;
28070;SDS011;15383;48.408;9.968;2024-01-16T09:53:40;10.70;;;4.18;;
28070;SDS011;15383;48.408;9.968;2024-01-16T09:56:07;9.43;;;3.78;;
28070;SDS011;15383;48.408;9.968;2024-01-16T09:58:38;6.65;;;3.35;;
28070;SDS011;15383;48.408;9.968;2024-01-16T10:01:05;10.50;;;4.00;;
28070;SDS011;15383;48.408;9.968;2024-01-16T10:03:31;8.30;;;3.88;;
28070;SDS011;15383;48.408;9.968;2024-01-16T10:05:58;10.77;;;3.92;;
28070;SDS011;15383;48.408;9.968;2024-01-16T10:08:25;9.77;;;4.60;;
28070;SDS011;15383;48.408;9.968;2024-01-16T10:10:52;10.20;;;4.18;;
28070;SDS011;15383;48.408;9.968;2024-01-16T10:13:17;7.25;;;3.45;;
28070;SDS011;15383;48.408;9.968;2024-01-16T10:15:44;11.70;;;4.43;;
28070;SDS011;15383;48.408;9.968;2024-01-16T10:18:28;7.30;;;3.63;;
28070;SDS011;15383;48.408;9.968;2024-01-16T10:20:59;8.77;;;3.70;;
28070;SDS011;15383;48.408;9.968;2024-01-16T10:23:25;7.47;;;3.72;;
28070;SDS011;15383;48.408;9.968;2024-01-16T10:26:11;10.15;;;4.25;;
28070;SDS011;15383;48.408;9.968;2024-01-16T10:28:40;11.07;;;4.60;;
28070;SDS011;15383;48.408;9.968;2024-01-16T10:31:08;8.60;;;4.00;;
28070;SDS011;15383;48.408;9.968;2024-01-16T10:33:34;10.60;;;3.83;;
28070;SDS011;15383;48.408;9.968;2024-01-16T10:36:23;7.50;;;3.67;;
28070;SDS011;15383;48.408;9.968;2024-01-16T10:38:50;6.57;;;3.83;;
28070;SDS011;15383;48.408;9.968;2024-01-16T10:41:22;9.65;;;3.88;;
28070;SDS011;15383;48.408;9.968;2024-01-16T10:44:02;8.23;;;3.67;;
28070;SDS011;15383;48.408;9.968;2024-01-16T10:46:32;11.38;;;4.25;;
28070;SDS011;15383;48.408;9.968;2024-01-16T10:48:59;6.78;;;3.25;;
28070;SDS011;15383;48.408;9.968;2024-01-16T10:51:29;7.63;;;3.85;;
28070;SDS011;15383;48.408;9.968;2024-01-16T10:54:04;9.98;;;4.03;;
28070;SDS011;15383;48.408;9.968;2024-01-16T10:56:31;6.95;;;4.50;;
28070;SDS011;15383;48.408;9.968;2024-01-16T10:59:18;17.10;;;4.20;;
28070;SDS011;15383;48.408;9.968;2024-01-16T11:01:47;11.93;;;3.38;;
28070;SDS011;15383;48.408;9.968;2024-01-16T11:04:16;12.13;;;4.10;;
28070;SDS011;15383;48.408;9.968;2024-01-16T11:06:43;10.55;;;3.97;;
28070;SDS011;15383;48.408;9.968;2024-01-16T11:09:09;10.25;;;4.32;;
28070;SDS011;15383;48.408;9.968;2024-01-16T11:11:40;16.50;;;4.82;;
28070;SDS011;15383;48.408;9.968;2024-01-16T11:14:08;10.85;;;4.60;;
28070;SDS011;15383;48.408;9.968;2024-01-16T11:16:34;11.98;;;4.65;;
28070;SDS011;15383;48.408;9.968;2024-01-16T11:19:01;8.30;;;3.97;;
28070;SDS011;15383;48.408;9.968;2024-01-16T11:21:29;11.60;;;5.07;;
28070;SDS011;15383;48.408;9.968;2024-01-16T11:23:55;9.23;;;3.80;;
28070;SDS011;15383;48.408;9.968;2024-01-16T11:26:27;13.07;;;4.15;;
28070;SDS011;15383;48.408;9.968;2024-01-16T11:28:57;11.45;;;4.47;;
28070;SDS011;15383;48.408;9.968;2024-01-16T11:31:33;7.82;;;4.30;;
28070;SDS011;15383;48.408;9.968;2024-01-16T11:34:00;10.73;;;5.63;;
28070;SDS011;15383;48.408;9.968;2024-01-16T11:36:43;9.05;;;4.25;;
28070;SDS011;15383;48.408;9.968;2024-01-16T11:39:20;9.60;;;3.78;;
28070;SDS011;15383;48.408;9.968;2024-01-16T11:41:53;9.43;;;5.10;;
28070;SDS011;15383;48.408;9.968;2024-01-16T11:47:06;9.88;;;3.85;;
28070;SDS011;15383;48.408;9.968;2024-01-16T11:49:32;8.35;;;4.45;;
28070;SDS011;15383;48.408;9.968;2024-01-16T11:51:58;11.93;;;3.85;;
28070;SDS011;15383;48.408;9.968;2024-01-16T11:54:24;7.45;;;3.45;;
28070;SDS011;15383;48.408;9.968;2024-01-16T12:01:48;12.35;;;4.85;;
28070;SDS011;15383;48.408;9.968;2024-01-16T12:04:17;8.02;;;3.78;;
28070;SDS011;15383;48.408;9.968;2024-01-16T12:06:46;7.68;;;3.65;;
28070;SDS011;15383;48.408;9.968;2024-01-16T12:09:25;11.03;;;3.70;;
28070;SDS011;15383;48.408;9.968;2024-01-16T12:12:01;8.13;;;3.30;;
28070;SDS011;15383;48.408;9.968;2024-01-16T12:14:28;6.30;;;3.70;;
28070;SDS011;15383;48.408;9.968;2024-01-16T12:17:10;5.75;;;3.45;;
28070;SDS011;15383;48.408;9.968;2024-01-16T12:19:36;10.77;;;3.45;;
28070;SDS011;15383;48.408;9.968;2024-01-16T12:22:02;8.40;;;3.00;;
28070;SDS011;15383;48.408;9.968;2024-01-16T12:24:27;4.85;;;2.83;;
28070;SDS011;15383;48.408;9.968;2024-01-16T12:26:57;3.55;;;2.47;;
28070;SDS011;15383;48.408;9.968;2024-01-16T12:29:23;5.55;;;2.60;;
28070;SDS011;15383;48.408;9.968;2024-01-16T12:31:48;4.65;;;2.35;;
28070;SDS011;15383;48.408;9.968;2024-01-16T12:34:14;6.93;;;2.60;;
28070;SDS011;15383;48.408;9.968;2024-01-16T12:36:39;5.68;;;2.25;;
28070;SDS011;15383;48.408;9.968;2024-01-16T12:39:05;4.13;;;2.08;;
28070;SDS011;15383;48.408;9.968;2024-01-16T12:41:32;6.00;;;2.65;;
28070;SDS011;15383;48.408;9.968;2024-01-16T12:44:02;3.10;;;2.17;;
28070;SDS011;15383;48.408;9.968;2024-01-16T12:46:28;3.38;;;1.85;;
28070;SDS011;15383;48.408;9.968;2024-01-16T12:48:59;3.78;;;1.80;;
28070;SDS011;15383;48.408;9.968;2024-01-16T12:51:26;3.63;;;2.20;;
28070;SDS011;15383;48.408;9.968;2024-01-16T12:53:51;3.20;;;1.50;;
28070;SDS011;15383;48.408;9.968;2024-01-16T12:56:20;4.47;;;2.08;;
28070;SDS011;15383;48.408;9.968;2024-01-16T12:58:46;6.70;;;1.77;;
28070;SDS011;15383;48.408;9.968;2024-01-16T13:03:50;3.17;;;1.80;;
28070;SDS011;15383;48.408;9.968;2024-01-16T13:06:17;2.58;;;1.70;;
28070;SDS011;15383;48.408;9.968;2024-01-16T13:08:44;7.85;;;1.90;;
28070;SDS011;15383;48.408;9.968;2024-01-16T13:11:13;4.85;;;2.22;;
28070;SDS011;15383;48.408;9.968;2024-01-16T13:13:44;4.53;;;2.00;;
28070;SDS011;15383;48.408;9.968;2024-01-16T13:16:10;5.50;;;1.98;;
28070;SDS011;15383;48.408;9.968;2024-01-16T13:18:36;3.20;;;1.70;;
28070;SDS011;15383;48.408;9.968;2024-01-16T13:21:02;4.95;;;1.95;;
28070;SDS011;15383;48.408;9.968;2024-01-16T13:23:29;5.95;;;2.42;;
28070;SDS011;15383;48.408;9.968;2024-01-16T13:25:55;6.25;;;1.90;;
28070;SDS011;15383;48.408;9.968;2024-01-16T13:28:21;2.85;;;1.42;;
28070;SDS011;15383;48.408;9.968;2024-01-16T13:30:48;5.80;;;2.42;;
28070;SDS011;15383;48.408;9.968;2024-01-16T13:33:14;3.90;;;2.20;;
28070;SDS011;15383;48.408;9.968;2024-01-16T13:35:43;6.97;;;2.47;;
28070;SDS011;15383;48.408;9.968;2024-01-16T13:38:11;6.55;;;3.00;;
28070;SDS011;15383;48.408;9.968;2024-01-16T13:40:38;4.22;;;2.53;;
28070;SDS011;15383;48.408;9.968;2024-01-16T13:43:03;6.88;;;2.92;;
28070;SDS011;15383;48.408;9.968;2024-01-16T13:45:31;6.15;;;3.22;;
28070;SDS011;15383;48.408;9.968;2024-01-16T13:47:58;5.30;;;2.92;;
28070;SDS011;15383;48.408;9.968;2024-01-16T13:50:23;10.93;;;2.38;;
28070;SDS011;15383;48.408;9.968;2024-01-16T13:52:49;5.95;;;2.72;;
28070;SDS011;15383;48.408;9.968;2024-01-16T13:55:15;10.27;;;2.70;;
28070;SDS011;15383;48.408;9.968;2024-01-16T13:57:41;8.63;;;2.75;;
28070;SDS011;15383;48.408;9.968;2024-01-16T14:00:07;6.75;;;2.63;;
28070;SDS011;15383;48.408;9.968;2024-01-16T14:02:48;10.13;;;2.55;;
28070;SDS011;15383;48.408;9.968;2024-01-16T14:05:17;4.32;;;2.72;;
28070;SDS011;15383;48.408;9.968;2024-01-16T14:07:44;8.30;;;3.30;;
28070;SDS011;15383;48.408;9.968;2024-01-16T14:10:11;6.93;;;3.05;;
28070;SDS011;15383;48.408;9.968;2024-01-16T14:12:41;4.78;;;2.75;;
28070;SDS011;15383;48.408;9.968;2024-01-16T14:15:10;4.50;;;2.65;;
28070;SDS011;15383;48.408;9.968;2024-01-16T14:17:48;10.07;;;2.80;;
28070;SDS011;15383;48.408;9.968;2024-01-16T14:20:15;6.65;;;3.10;;
28070;SDS011;15383;48.408;9.968;2024-01-16T14:22:42;7.78;;;2.63;;
28070;SDS011;15383;48.408;9.968;2024-01-16T14:25:08;4.53;;;2.40;;
28070;SDS011;15383;48.408;9.968;2024-01-16T14:27:41;9.57;;;2.80;;
28070;SDS011;15383;48.408;9.968;2024-01-16T14:30:12;4.70;;;2.90;;
28070;SDS011;15383;48.408;9.968;2024-01-16T14:32:40;9.15;;;3.45;;
28070;SDS011;15383;48.408;9.968;2024-01-16T14:35:07;6.32;;;2.80;;
28070;SDS011;15383;48.408;9.968;2024-01-16T14:37:34;7.03;;;3.00;;
28070;SDS011;15383;48.408;9.968;2024-01-16T14:40:04;7.90;;;3.33;;
28070;SDS011;15383;48.408;9.968;2024-01-16T14:42:40;6.07;;;2.55;;
28070;SDS011;15383;48.408;9.968;2024-01-16T14:45:07;14.02;;;2.90;;
28070;SDS011;15383;48.408;9.968;2024-01-16T14:47:36;9.02;;;2.80;;
28070;SDS011;15383;48.408;9.968;2024-01-16T14:50:02;9.80;;;3.38;;
28070;SDS011;15383;48.408;9.968;2024-01-16T14:52:29;7.20;;;3.70;;
28070;SDS011;15383;48.408;9.968;2024-01-16T14:54:57;3.13;;;1.27;;
28070;SDS011;15383;48.408;9.968;2024-01-16T14:57:23;8.48;;;2.10;;
28070;SDS011;15383;48.408;9.968;2024-01-16T14:59:49;4.72;;;2.10;;
28070;SDS011;15383;48.408;9.968;2024-01-16T15:02:15;8.30;;;3.38;;
28070;SDS011;15383;48.408;9.968;2024-01-16T15:04:41;7.13;;;3.05;;
28070;SDS011;15383;48.408;9.968;2024-01-16T15:07:08;7.93;;;2.53;;
28070;SDS011;15383;48.408;9.968;2024-01-16T15:09:34;6.78;;;3.55;;
28070;SDS011;15383;48.408;9.968;2024-01-16T15:12:02;4.90;;;2.58;;
28070;SDS011;15383;48.408;9.968;2024-01-16T15:14:34;5.32;;;2.63;;
28070;SDS011;15383;48.408;9.968;2024-01-16T15:17:00;6.78;;;2.83;;
28070;SDS011;15383;48.408;9.968;2024-01-16T15:19:27;6.18;;;2.50;;
28070;SDS011;15383;48.408;9.968;2024-01-16T15:21:53;8.43;;;3.03;;
28070;SDS011;15383;48.408;9.968;2024-01-16T15:24:19;6.35;;;2.90;;
28070;SDS011;15383;48.408;9.968;2024-01-16T15:26:51;8.43;;;3.28;;
28070;SDS011;15383;48.408;9.968;2024-01-16T15:29:18;9.23;;;2.95;;
28070;SDS011;15383;48.408;9.968;2024-01-16T15:31:43;4.88;;;2.83;;
28070;SDS011;15383;48.408;9.968;2024-01-16T15:34:09;7.82;;;3.35;;
28070;SDS011;15383;48.408;9.968;2024-01-16T15:36:34;6.47;;;3.05;;
28070;SDS011;15383;48.408;9.968;2024-01-16T15:39:00;8.13;;;3.13;;
28070;SDS011;15383;48.408;9.968;2024-01-16T15:41:27;6.05;;;3.17;;
28070;SDS011;15383;48.408;9.968;2024-01-16T15:43:52;5.07;;;3.10;;
28070;SDS011;15383;48.408;9.968;2024-01-16T15:46:18;6.78;;;3.58;;
28070;SDS011;15383;48.408;9.968;2024-01-16T15:48:44;8.63;;;3.03;;
28070;SDS011;15383;48.408;9.968;2024-01-16T15:51:11;9.60;;;3.15;;
28070;SDS011;15383;48.408;9.968;2024-01-16T15:53:36;8.68;;;3.30;;
28070;SDS011;15383;48.408;9.968;2024-01-16T15:56:02;5.97;;;3.85;;
28070;SDS011;15383;48.408;9.968;2024-01-16T15:58:30;8.13;;;3.05;;
28070;SDS011;15383;48.408;9.968;2024-01-16T16:00:57;5.60;;;2.95;;
28070;SDS011;15383;48.408;9.968;2024-01-16T16:03:23;5.70;;;3.47;;
28070;SDS011;15383;48.408;9.968;2024-01-16T16:05:49;10.98;;;3.83;;
28070;SDS011;15383;48.408;9.968;2024-01-16T16:08:15;8.15;;;3.17;;
28070;SDS011;15383;48.408;9.968;2024-01-16T16:10:40;6.85;;;3.33;;
28070;SDS011;15383;48.408;9.968;2024-01-16T16:13:07;8.80;;;3.90;;
28070;SDS011;15383;48.408;9.968;2024-01-16T16:15:36;6.00;;;3.38;;
28070;SDS011;15383;48.408;9.968;2024-01-16T16:18:04;7.90;;;3.65;;
28070;SDS011;15383;48.408;9.968;2024-01-16T16:20:29;12.60;;;4.07;;
28070;SDS011;15383;48.408;9.968;2024-01-16T16:22:55;7.60;;;3.63;;
28070;SDS011;15383;48.408;9.968;2024-01-16T16:25:20;7.35;;;4.35;;
28070;SDS011;15383;48.408;9.968;2024-01-16T16:27:46;9.18;;;4.40;;
28070;SDS011;15383;48.408;9.968;2024-01-16T16:30:12;9.65;;;4.57;;
28070;SDS011;15383;48.408;9.968;2024-01-16T16:32:39;7.47;;;3.92;;
28070;SDS011;15383;48.408;9.968;2024-01-16T16:35:04;12.07;;;5.25;;
28070;SDS011;15383;48.408;9.968;2024-01-16T16:37:30;10.70;;;4.65;;
28070;SDS011;15383;48.408;9.968;2024-01-16T16:39:57;11.10;;;4.47;;
28070;SDS011;15383;48.408;9.968;2024-01-16T16:42:22;14.93;;;4.50;;
28070;SDS011;15383;48.408;9.968;2024-01-16T16:44:48;7.32;;;4.30;;
28070;SDS011;15383;48.408;9.968;2024-01-16T16:47:13;12.48;;;5.10;;
28070;SDS011;15383;48.408;9.968;2024-01-16T16:49:40;14.25;;;4.75;;
28070;SDS011;15383;48.408;9.968;2024-01-16T16:52:06;17.90;;;5.68;;
28070;SDS011;15383;48.408;9.968;2024-01-16T16:54:32;18.70;;;5.40;;
28070;SDS011;15383;48.408;9.968;2024-01-16T16:56:57;12.02;;;5.03;;
28070;SDS011;15383;48.408;9.968;2024-01-16T16:59:23;12.75;;;5.32;;
28070;SDS011;15383;48.408;9.968;2024-01-16T17:01:49;12.60;;;4.72;;
28070;SDS011;15383;48.408;9.968;2024-01-16T17:04:16;13.73;;;4.35;;
28070;SDS011;15383;48.408;9.968;2024-01-16T17:06:42;10.48;;;5.18;;
28070;SDS011;15383;48.408;9.968;2024-01-16T17:09:08;10.32;;;4.93;;
28070;SDS011;15383;48.408;9.968;2024-01-16T17:11:36;15.15;;;4.75;;
28070;SDS011;15383;48.408;9.968;2024-01-16T17:14:02;11.40;;;4.88;;
28070;SDS011;15383;48.408;9.968;2024-01-16T17:16:28;10.27;;;4.68;;
28070;SDS011;15383;48.408;9.968;2024-01-16T17:18:54;15.25;;;4.82;;
28070;SDS011;15383;48.408;9.968;2024-01-16T17:21:20;10.63;;;4.38;;
28070;SDS011;15383;48.408;9.968;2024-01-16T17:23:45;12.68;;;5.57;;
28070;SDS011;15383;48.408;9.968;2024-01-16T17:26:11;10.85;;;4.55;;
28070;SDS011;15383;48.408;9.968;2024-01-16T17:28:36;12.60;;;4.78;;
28070;SDS011;15383;48.408;9.968;2024-01-16T17:31:02;12.48;;;5.00;;
28070;SDS011;15383;48.408;9.968;2024-01-16T17:33:28;8.88;;;4.18;;
28070;SDS011;15383;48.408;9.968;2024-01-16T17:35:54;9.38;;;4.95;;
28070;SDS011;15383;48.408;9.968;2024-01-16T17:38:25;11.50;;;4.43;;
28070;SDS011;15383;48.408;9.968;2024-01-16T17:40:54;7.15;;;3.90;;
28070;SDS011;15383;48.408;9.968;2024-01-16T17:43:19;12.98;;;4.15;;
28070;SDS011;15383;48.408;9.968;2024-01-16T17:45:45;9.85;;;4.82;;
28070;SDS011;15383;48.408;9.968;2024-01-16T17:48:11;9.68;;;4.50;;
28070;SDS011;15383;48.408;9.968;2024-01-16T17:50:36;9.95;;;4.25;;
28070;SDS011;15383;48.408;9.968;2024-01-16T17:53:03;13.43;;;4.28;;
28070;SDS011;15383;48.408;9.968;2024-01-16T17:55:30;11.60;;;4.55;;
28070;SDS011;15383;48.408;9.968;2024-01-16T17:57:58;10.68;;;4.40;;
28070;SDS011;15383;48.408;9.968;2024-01-16T18:00:27;10.20;;;5.05;;